sensor_id;sensor_type;location;lat;lon;timestamp;P1;durP1;ratioP1;P2;durP2;ratioP2
18140;SDS011;9196;49.194;12.526;2023-02-18T00:02:12;2.40;;;1.67;;
18140;SDS011;9196;49.194;12.526;2023-02-18T00:04:39;1.70;;;1.70;;
18140;SDS011;9196;49.194;12.526;2023-02-18T00:07:07;1.63;;;1.50;;
18140;SDS011;9196;49.194;12.526;2023-02-18T00:09:34;1.58;;;1.48;;
18140;SDS011;9196;49.194;12.526;2023-02-18T00:12:03;1.60;;;1.50;;
18140;SDS011;9196;49.194;12.526;2023-02-18T00:14:29;3.80;;;1.87;;
18140;SDS011;9196;49.194;12.526;2023-02-18T00:16:56;1.45;;;1.45;;
18140;SDS011;9196;49.194;12.526;2023-02-18T00:19:23;1.77;;;1.67;;
18140;SDS011;9196;49.194;12.526;2023-02-18T00:21:50;2.17;;;2.07;;
18140;SDS011;9196;49.194;12.526;2023-02-18T00:24:18;1.77;;;1.67;;
18140;SDS011;9196;49.194;12.526;2023-02-18T00:26:48;2.08;;;1.98;;
18140;SDS011;9196;49.194;12.526;2023-02-18T00:29:15;3.70;;;1.73;;
18140;SDS011;9196;49.194;12.526;2023-02-18T00:31:43;2.23;;;1.83;;
18140;SDS011;9196;49.194;12.526;2023-02-18T00:34:10;2.47;;;2.37;;
18140;SDS011;9196;49.194;12.526;2023-02-18T00:36:38;1.87;;;1.80;;
18140;SDS011;9196;49.194;12.526;2023-02-18T00:39:06;1.93;;;1.83;;
18140;SDS011;9196;49.194;12.526;2023-02-18T00:41:36;2.63;;;2.43;;
18140;SDS011;9196;49.194;12.526;2023-02-18T00:44:03;2.20;;;2.00;;
18140;SDS011;9196;49.194;12.526;2023-02-18T00:46:31;2.10;;;2.00;;
18140;SDS011;9196;49.194;12.526;2023-02-18T00:48:58;2.03;;;1.93;;
18140;SDS011;9196;49.194;12.526;2023-02-18T00:51:25;2.03;;;1.93;;
18140;SDS011;9196;49.194;12.526;2023-02-18T00:53:52;2.55;;;2.35;;
18140;SDS011;9196;49.194;12.526;2023-02-18T00:56:19;2.13;;;2.13;;
18140;SDS011;9196;49.194;12.526;2023-02-18T00:58:48;1.87;;;1.80;;
18140;SDS011;9196;49.194;12.526;2023-02-18T01:01:16;1.88;;;1.88;;
18140;SDS011;9196;49.194;12.526;2023-02-18T01:03:43;2.30;;;2.10;;
18140;SDS011;9196;49.194;12.526;2023-02-18T01:06:11;2.10;;;2.00;;
18140;SDS011;9196;49.194;12.526;2023-02-18T01:08:38;2.53;;;2.42;;
18140;SDS011;9196;49.194;12.526;2023-02-18T01:11:06;2.10;;;2.00;;
18140;SDS011;9196;49.194;12.526;2023-02-18T01:13:34;1.90;;;1.80;;
18140;SDS011;9196;49.194;12.526;2023-02-18T01:16:03;2.95;;;1.70;;
18140;SDS011;9196;49.194;12.526;2023-02-18T01:18:30;1.75;;;1.65;;
18140;SDS011;9196;49.194;12.526;2023-02-18T01:20:57;1.92;;;1.83;;
18140;SDS011;9196;49.194;12.526;2023-02-18T01:23:24;1.90;;;1.80;;
18140;SDS011;9196;49.194;12.526;2023-02-18T01:25:52;1.70;;;1.70;;
18140;SDS011;9196;49.194;12.526;2023-02-18T01:28:20;1.80;;;1.80;;
18140;SDS011;9196;49.194;12.526;2023-02-18T01:30:49;1.67;;;1.57;;
18140;SDS011;9196;49.194;12.526;2023-02-18T01:33:17;1.77;;;1.67;;
18140;SDS011;9196;49.194;12.526;2023-02-18T01:35:44;1.77;;;1.77;;
18140;SDS011;9196;49.194;12.526;2023-02-18T01:38:11;1.90;;;1.80;;
18140;SDS011;9196;49.194;12.526;2023-02-18T01:40:43;1.10;;;1.10;;
18140;SDS011;9196;49.194;12.526;2023-02-18T01:43:11;1.80;;;1.80;;
18140;SDS011;9196;49.194;12.526;2023-02-18T01:45:50;1.73;;;1.63;;
18140;SDS011;9196;49.194;12.526;2023-02-18T01:48:35;1.60;;;1.60;;
18140;SDS011;9196;49.194;12.526;2023-02-18T01:51:07;1.80;;;1.80;;
18140;SDS011;9196;49.194;12.526;2023-02-18T01:53:37;1.60;;;1.60;;
18140;SDS011;9196;49.194;12.526;2023-02-18T01:56:09;1.63;;;1.63;;
18140;SDS011;9196;49.194;12.526;2023-02-18T01:58:39;2.40;;;1.90;;
18140;SDS011;9196;49.194;12.526;2023-02-18T02:01:07;1.73;;;1.63;;
18140;SDS011;9196;49.194;12.526;2023-02-18T02:03:36;1.67;;;1.57;;
18140;SDS011;9196;49.194;12.526;2023-02-18T02:06:05;4.40;;;2.20;;
18140;SDS011;9196;49.194;12.526;2023-02-18T02:08:36;2.58;;;1.80;;
18140;SDS011;9196;49.194;12.526;2023-02-18T02:11:06;1.52;;;1.52;;
18140;SDS011;9196;49.194;12.526;2023-02-18T02:13:50;2.10;;;2.00;;
18140;SDS011;9196;49.194;12.526;2023-02-18T02:16:34;1.50;;;1.40;;
18140;SDS011;9196;49.194;12.526;2023-02-18T02:19:11;1.80;;;1.70;;
18140;SDS011;9196;49.194;12.526;2023-02-18T02:22:04;1.70;;;1.70;;
18140;SDS011;9196;49.194;12.526;2023-02-18T02:24:49;1.40;;;1.40;;
18140;SDS011;9196;49.194;12.526;2023-02-18T02:27:28;1.50;;;1.50;;
18140;SDS011;9196;49.194;12.526;2023-02-18T02:36:13;1.52;;;1.42;;
18140;SDS011;9196;49.194;12.526;2023-02-18T02:38:44;1.63;;;1.63;;
18140;SDS011;9196;49.194;12.526;2023-02-18T02:41:21;2.10;;;1.13;;
18140;SDS011;9196;49.194;12.526;2023-02-18T02:43:59;2.28;;;1.55;;
18140;SDS011;9196;49.194;12.526;2023-02-18T02:46:37;1.10;;;1.10;;
18140;SDS011;9196;49.194;12.526;2023-02-18T02:49:08;3.20;;;1.10;;
18140;SDS011;9196;49.194;12.526;2023-02-18T02:51:45;1.40;;;1.40;;
18140;SDS011;9196;49.194;12.526;2023-02-18T02:54:17;1.13;;;1.13;;
18140;SDS011;9196;49.194;12.526;2023-02-18T02:56:46;1.30;;;1.30;;
18140;SDS011;9196;49.194;12.526;2023-02-18T02:59:14;1.30;;;1.20;;
18140;SDS011;9196;49.194;12.526;2023-02-18T03:01:48;1.60;;;1.60;;
18140;SDS011;9196;49.194;12.526;2023-02-18T03:04:34;1.08;;;1.08;;
18140;SDS011;9196;49.194;12.526;2023-02-18T03:07:37;1.25;;;1.25;;
18140;SDS011;9196;49.194;12.526;2023-02-18T03:10:16;1.27;;;1.17;;
18140;SDS011;9196;49.194;12.526;2023-02-18T03:12:57;1.42;;;1.42;;
18140;SDS011;9196;49.194;12.526;2023-02-18T03:15:33;1.63;;;1.52;;
18140;SDS011;9196;49.194;12.526;2023-02-18T03:18:06;1.10;;;1.10;;
18140;SDS011;9196;49.194;12.526;2023-02-18T03:20:40;1.45;;;1.35;;
18140;SDS011;9196;49.194;12.526;2023-02-18T03:23:14;1.30;;;1.30;;
18140;SDS011;9196;49.194;12.526;2023-02-18T03:25:44;1.60;;;1.20;;
18140;SDS011;9196;49.194;12.526;2023-02-18T03:28:12;3.90;;;1.30;;
18140;SDS011;9196;49.194;12.526;2023-02-18T03:30:43;1.20;;;1.20;;
18140;SDS011;9196;49.194;12.526;2023-02-18T03:33:13;1.40;;;1.40;;
18140;SDS011;9196;49.194;12.526;2023-02-18T03:35:43;3.93;;;1.80;;
18140;SDS011;9196;49.194;12.526;2023-02-18T03:38:14;1.73;;;1.30;;
18140;SDS011;9196;49.194;12.526;2023-02-18T03:40:45;1.73;;;1.50;;
18140;SDS011;9196;49.194;12.526;2023-02-18T03:43:12;1.60;;;1.50;;
18140;SDS011;9196;49.194;12.526;2023-02-18T03:45:39;1.00;;;1.00;;
18140;SDS011;9196;49.194;12.526;2023-02-18T03:48:06;1.70;;;1.40;;
18140;SDS011;9196;49.194;12.526;2023-02-18T03:50:33;1.77;;;1.77;;
18140;SDS011;9196;49.194;12.526;2023-02-18T03:52:59;1.50;;;1.50;;
18140;SDS011;9196;49.194;12.526;2023-02-18T03:55:28;1.50;;;1.50;;
18140;SDS011;9196;49.194;12.526;2023-02-18T03:57:54;2.30;;;1.63;;
18140;SDS011;9196;49.194;12.526;2023-02-18T04:00:21;1.55;;;1.55;;
18140;SDS011;9196;49.194;12.526;2023-02-18T04:02:48;1.50;;;1.50;;
18140;SDS011;9196;49.194;12.526;2023-02-18T04:05:15;1.98;;;1.70;;
18140;SDS011;9196;49.194;12.526;2023-02-18T04:07:42;1.30;;;1.30;;
18140;SDS011;9196;49.194;12.526;2023-02-18T04:10:09;1.23;;;1.23;;
18140;SDS011;9196;49.194;12.526;2023-02-18T04:12:37;2.40;;;1.00;;
18140;SDS011;9196;49.194;12.526;2023-02-18T04:15:04;1.27;;;1.27;;
18140;SDS011;9196;49.194;12.526;2023-02-18T04:17:31;1.48;;;1.27;;
18140;SDS011;9196;49.194;12.526;2023-02-18T04:19:58;1.50;;;1.40;;
18140;SDS011;9196;49.194;12.526;2023-02-18T04:22:25;1.15;;;1.15;;
18140;SDS011;9196;49.194;12.526;2023-02-18T04:24:52;3.15;;;1.40;;
18140;SDS011;9196;49.194;12.526;2023-02-18T04:27:18;1.70;;;1.60;;
18140;SDS011;9196;49.194;12.526;2023-02-18T04:29:47;1.40;;;1.40;;
18140;SDS011;9196;49.194;12.526;2023-02-18T04:32:13;2.97;;;1.40;;
18140;SDS011;9196;49.194;12.526;2023-02-18T04:34:40;3.00;;;1.33;;
18140;SDS011;9196;49.194;12.526;2023-02-18T04:37:07;1.40;;;1.40;;
18140;SDS011;9196;49.194;12.526;2023-02-18T04:39:34;3.70;;;1.30;;
18140;SDS011;9196;49.194;12.526;2023-02-18T04:42:01;1.50;;;1.50;;
18140;SDS011;9196;49.194;12.526;2023-02-18T04:44:32;1.50;;;1.40;;
18140;SDS011;9196;49.194;12.526;2023-02-18T04:47:01;1.20;;;1.20;;
18140;SDS011;9196;49.194;12.526;2023-02-18T04:49:27;1.40;;;1.30;;
18140;SDS011;9196;49.194;12.526;2023-02-18T04:51:54;2.10;;;1.30;;
18140;SDS011;9196;49.194;12.526;2023-02-18T04:54:21;1.30;;;1.30;;
18140;SDS011;9196;49.194;12.526;2023-02-18T04:56:48;1.30;;;1.30;;
18140;SDS011;9196;49.194;12.526;2023-02-18T04:59:15;1.17;;;1.17;;
18140;SDS011;9196;49.194;12.526;2023-02-18T05:01:42;1.77;;;1.53;;
18140;SDS011;9196;49.194;12.526;2023-02-18T05:04:10;1.23;;;1.23;;
18140;SDS011;9196;49.194;12.526;2023-02-18T05:06:37;1.40;;;1.40;;
18140;SDS011;9196;49.194;12.526;2023-02-18T05:09:04;1.30;;;1.20;;
18140;SDS011;9196;49.194;12.526;2023-02-18T05:11:31;1.70;;;1.60;;
18140;SDS011;9196;49.194;12.526;2023-02-18T05:13:58;1.67;;;1.30;;
18140;SDS011;9196;49.194;12.526;2023-02-18T05:16:25;1.53;;;1.50;;
18140;SDS011;9196;49.194;12.526;2023-02-18T05:18:52;1.33;;;1.10;;
18140;SDS011;9196;49.194;12.526;2023-02-18T05:21:20;1.13;;;1.13;;
18140;SDS011;9196;49.194;12.526;2023-02-18T05:23:47;1.10;;;1.10;;
18140;SDS011;9196;49.194;12.526;2023-02-18T05:26:14;1.20;;;1.20;;
18140;SDS011;9196;49.194;12.526;2023-02-18T05:28:41;1.27;;;1.13;;
18140;SDS011;9196;49.194;12.526;2023-02-18T05:31:08;1.47;;;1.37;;
18140;SDS011;9196;49.194;12.526;2023-02-18T05:33:34;1.63;;;1.53;;
18140;SDS011;9196;49.194;12.526;2023-02-18T05:36:01;3.92;;;1.67;;
18140;SDS011;9196;49.194;12.526;2023-02-18T05:38:30;1.80;;;1.70;;
18140;SDS011;9196;49.194;12.526;2023-02-18T05:40:57;1.20;;;1.20;;
18140;SDS011;9196;49.194;12.526;2023-02-18T05:43:23;1.33;;;1.30;;
18140;SDS011;9196;49.194;12.526;2023-02-18T05:45:50;1.42;;;1.42;;
18140;SDS011;9196;49.194;12.526;2023-02-18T05:48:17;2.00;;;1.90;;
18140;SDS011;9196;49.194;12.526;2023-02-18T05:50:44;1.50;;;1.50;;
18140;SDS011;9196;49.194;12.526;2023-02-18T05:53:11;3.20;;;1.77;;
18140;SDS011;9196;49.194;12.526;2023-02-18T05:55:39;1.40;;;1.40;;
18140;SDS011;9196;49.194;12.526;2023-02-18T05:58:06;1.20;;;1.20;;
18140;SDS011;9196;49.194;12.526;2023-02-18T06:00:32;1.30;;;1.30;;
18140;SDS011;9196;49.194;12.526;2023-02-18T06:02:59;1.52;;;1.52;;
18140;SDS011;9196;49.194;12.526;2023-02-18T06:05:26;1.83;;;1.67;;
18140;SDS011;9196;49.194;12.526;2023-02-18T06:07:53;1.80;;;1.70;;
18140;SDS011;9196;49.194;12.526;2023-02-18T06:10:20;2.07;;;1.97;;
18140;SDS011;9196;49.194;12.526;2023-02-18T06:12:48;1.70;;;1.50;;
18140;SDS011;9196;49.194;12.526;2023-02-18T06:15:15;2.40;;;2.30;;
18140;SDS011;9196;49.194;12.526;2023-02-18T06:17:41;3.47;;;2.40;;
18140;SDS011;9196;49.194;12.526;2023-02-18T06:20:09;1.92;;;1.88;;
18140;SDS011;9196;49.194;12.526;2023-02-18T06:22:36;2.72;;;1.95;;
18140;SDS011;9196;49.194;12.526;2023-02-18T06:25:03;2.33;;;2.25;;
18140;SDS011;9196;49.194;12.526;2023-02-18T06:27:30;2.35;;;2.25;;
18140;SDS011;9196;49.194;12.526;2023-02-18T06:29:58;2.95;;;2.75;;
18140;SDS011;9196;49.194;12.526;2023-02-18T06:32:25;2.90;;;2.80;;
18140;SDS011;9196;49.194;12.526;2023-02-18T06:34:52;2.65;;;2.45;;
18140;SDS011;9196;49.194;12.526;2023-02-18T06:37:19;3.15;;;2.95;;
18140;SDS011;9196;49.194;12.526;2023-02-18T06:39:46;4.17;;;3.13;;
18140;SDS011;9196;49.194;12.526;2023-02-18T06:42:13;2.25;;;2.15;;
18140;SDS011;9196;49.194;12.526;2023-02-18T06:44:40;4.32;;;2.22;;
18140;SDS011;9196;49.194;12.526;2023-02-18T06:47:08;3.20;;;3.00;;
18140;SDS011;9196;49.194;12.526;2023-02-18T06:49:35;2.63;;;2.50;;
18140;SDS011;9196;49.194;12.526;2023-02-18T06:52:03;7.22;;;2.85;;
18140;SDS011;9196;49.194;12.526;2023-02-18T06:54:30;2.88;;;2.78;;
18140;SDS011;9196;49.194;12.526;2023-02-18T06:56:58;2.60;;;2.47;;
18140;SDS011;9196;49.194;12.526;2023-02-18T06:59:25;6.15;;;2.53;;
18140;SDS011;9196;49.194;12.526;2023-02-18T07:01:52;5.65;;;2.50;;
18140;SDS011;9196;49.194;12.526;2023-02-18T07:04:20;3.28;;;2.92;;
18140;SDS011;9196;49.194;12.526;2023-02-18T07:06:47;2.90;;;2.80;;
18140;SDS011;9196;49.194;12.526;2023-02-18T07:09:14;5.05;;;3.35;;
18140;SDS011;9196;49.194;12.526;2023-02-18T07:11:40;8.40;;;3.53;;
18140;SDS011;9196;49.194;12.526;2023-02-18T07:14:07;2.78;;;2.67;;
18140;SDS011;9196;49.194;12.526;2023-02-18T07:16:34;3.20;;;2.85;;
18140;SDS011;9196;49.194;12.526;2023-02-18T07:19:01;8.02;;;3.60;;
18140;SDS011;9196;49.194;12.526;2023-02-18T07:21:29;4.38;;;4.00;;
18140;SDS011;9196;49.194;12.526;2023-02-18T07:23:56;6.15;;;4.80;;
18140;SDS011;9196;49.194;12.526;2023-02-18T07:26:22;4.82;;;4.43;;
18140;SDS011;9196;49.194;12.526;2023-02-18T07:28:49;3.40;;;3.20;;
18140;SDS011;9196;49.194;12.526;2023-02-18T07:31:16;3.03;;;2.93;;
18140;SDS011;9196;49.194;12.526;2023-02-18T07:33:43;3.78;;;3.58;;
18140;SDS011;9196;49.194;12.526;2023-02-18T07:36:10;3.30;;;3.10;;
18140;SDS011;9196;49.194;12.526;2023-02-18T07:38:38;3.87;;;3.43;;
18140;SDS011;9196;49.194;12.526;2023-02-18T07:41:05;3.25;;;3.15;;
18140;SDS011;9196;49.194;12.526;2023-02-18T07:43:31;3.22;;;3.03;;
18140;SDS011;9196;49.194;12.526;2023-02-18T07:45:58;3.60;;;3.40;;
18140;SDS011;9196;49.194;12.526;2023-02-18T07:48:25;3.60;;;3.40;;
18140;SDS011;9196;49.194;12.526;2023-02-18T07:50:52;3.00;;;2.90;;
18140;SDS011;9196;49.194;12.526;2023-02-18T07:53:19;2.75;;;2.65;;
18140;SDS011;9196;49.194;12.526;2023-02-18T07:55:47;3.55;;;3.35;;
18140;SDS011;9196;49.194;12.526;2023-02-18T07:58:14;2.72;;;2.63;;
18140;SDS011;9196;49.194;12.526;2023-02-18T08:00:41;3.90;;;3.70;;
18140;SDS011;9196;49.194;12.526;2023-02-18T08:03:08;3.55;;;3.35;;
18140;SDS011;9196;49.194;12.526;2023-02-18T08:05:35;2.75;;;2.55;;
18140;SDS011;9196;49.194;12.526;2023-02-18T08:08:02;4.13;;;3.83;;
18140;SDS011;9196;49.194;12.526;2023-02-18T08:10:29;3.60;;;3.40;;
18140;SDS011;9196;49.194;12.526;2023-02-18T08:12:58;4.80;;;4.50;;
18140;SDS011;9196;49.194;12.526;2023-02-18T08:15:24;3.43;;;3.23;;
18140;SDS011;9196;49.194;12.526;2023-02-18T08:17:51;3.08;;;2.97;;
18140;SDS011;9196;49.194;12.526;2023-02-18T08:20:18;4.65;;;3.78;;
18140;SDS011;9196;49.194;12.526;2023-02-18T08:22:45;4.23;;;3.93;;
18140;SDS011;9196;49.194;12.526;2023-02-18T08:25:15;5.22;;;4.80;;
18140;SDS011;9196;49.194;12.526;2023-02-18T08:27:42;3.67;;;3.47;;
18140;SDS011;9196;49.194;12.526;2023-02-18T08:30:10;3.20;;;3.00;;
18140;SDS011;9196;49.194;12.526;2023-02-18T08:32:38;5.80;;;3.60;;
18140;SDS011;9196;49.194;12.526;2023-02-18T08:35:05;3.80;;;3.60;;
18140;SDS011;9196;49.194;12.526;2023-02-18T08:37:32;4.82;;;4.40;;
18140;SDS011;9196;49.194;12.526;2023-02-18T08:40:00;3.67;;;3.47;;
18140;SDS011;9196;49.194;12.526;2023-02-18T08:42:27;4.30;;;4.00;;
18140;SDS011;9196;49.194;12.526;2023-02-18T08:44:53;8.45;;;4.60;;
18140;SDS011;9196;49.194;12.526;2023-02-18T08:47:22;4.90;;;4.50;;
18140;SDS011;9196;49.194;12.526;2023-02-18T08:49:48;5.18;;;4.07;;
18140;SDS011;9196;49.194;12.526;2023-02-18T08:52:15;5.30;;;4.80;;
18140;SDS011;9196;49.194;12.526;2023-02-18T08:54:42;4.43;;;4.13;;
18140;SDS011;9196;49.194;12.526;2023-02-18T08:57:09;4.45;;;4.05;;
18140;SDS011;9196;49.194;12.526;2023-02-18T08:59:36;4.15;;;3.85;;
18140;SDS011;9196;49.194;12.526;2023-02-18T09:02:03;5.13;;;4.63;;
18140;SDS011;9196;49.194;12.526;2023-02-18T09:04:31;5.13;;;4.75;;
18140;SDS011;9196;49.194;12.526;2023-02-18T09:06:58;4.40;;;4.10;;
18140;SDS011;9196;49.194;12.526;2023-02-18T09:09:25;5.30;;;4.80;;
18140;SDS011;9196;49.194;12.526;2023-02-18T09:11:51;4.87;;;4.57;;
18140;SDS011;9196;49.194;12.526;2023-02-18T09:14:18;4.03;;;3.83;;
18140;SDS011;9196;49.194;12.526;2023-02-18T09:16:45;3.63;;;3.43;;
18140;SDS011;9196;49.194;12.526;2023-02-18T09:19:12;3.93;;;3.63;;
18140;SDS011;9196;49.194;12.526;2023-02-18T09:21:40;4.70;;;4.27;;
18140;SDS011;9196;49.194;12.526;2023-02-18T09:24:07;4.50;;;4.20;;
18140;SDS011;9196;49.194;12.526;2023-02-18T09:26:34;3.43;;;3.23;;
18140;SDS011;9196;49.194;12.526;2023-02-18T09:29:03;4.07;;;3.88;;
18140;SDS011;9196;49.194;12.526;2023-02-18T09:31:30;4.33;;;4.03;;
18140;SDS011;9196;49.194;12.526;2023-02-18T09:33:58;3.23;;;3.13;;
18140;SDS011;9196;49.194;12.526;2023-02-18T09:36:27;3.30;;;3.10;;
18140;SDS011;9196;49.194;12.526;2023-02-18T09:38:55;4.17;;;3.77;;
18140;SDS011;9196;49.194;12.526;2023-02-18T09:41:26;3.60;;;3.30;;
18140;SDS011;9196;49.194;12.526;2023-02-18T09:43:56;3.70;;;3.50;;
18140;SDS011;9196;49.194;12.526;2023-02-18T09:46:27;3.47;;;3.27;;
18140;SDS011;9196;49.194;12.526;2023-02-18T09:48:59;4.43;;;3.97;;
18140;SDS011;9196;49.194;12.526;2023-02-18T09:51:28;4.53;;;3.50;;
18140;SDS011;9196;49.194;12.526;2023-02-18T09:53:56;6.20;;;5.40;;
18140;SDS011;9196;49.194;12.526;2023-02-18T09:56:25;4.37;;;4.07;;
18140;SDS011;9196;49.194;12.526;2023-02-18T09:58:56;4.27;;;3.90;;
18140;SDS011;9196;49.194;12.526;2023-02-18T10:01:26;4.33;;;3.93;;
18140;SDS011;9196;49.194;12.526;2023-02-18T10:03:57;4.33;;;3.93;;
18140;SDS011;9196;49.194;12.526;2023-02-18T10:06:29;3.60;;;3.40;;
18140;SDS011;9196;49.194;12.526;2023-02-18T10:09:00;3.70;;;3.40;;
18140;SDS011;9196;49.194;12.526;2023-02-18T10:11:30;3.00;;;2.80;;
18140;SDS011;9196;49.194;12.526;2023-02-18T10:13:58;3.67;;;3.10;;
18140;SDS011;9196;49.194;12.526;2023-02-18T10:16:28;3.60;;;2.50;;
18140;SDS011;9196;49.194;12.526;2023-02-18T10:18:56;2.40;;;2.30;;
18140;SDS011;9196;49.194;12.526;2023-02-18T10:21:24;4.03;;;3.40;;
18140;SDS011;9196;49.194;12.526;2023-02-18T10:23:56;3.30;;;3.00;;
18140;SDS011;9196;49.194;12.526;2023-02-18T10:26:28;3.20;;;3.10;;
18140;SDS011;9196;49.194;12.526;2023-02-18T10:28:57;2.37;;;2.23;;
18140;SDS011;9196;49.194;12.526;2023-02-18T10:31:27;2.60;;;2.40;;
18140;SDS011;9196;49.194;12.526;2023-02-18T10:33:59;2.20;;;2.10;;
18140;SDS011;9196;49.194;12.526;2023-02-18T10:36:34;2.67;;;2.57;;
18140;SDS011;9196;49.194;12.526;2023-02-18T10:39:22;2.70;;;2.50;;
18140;SDS011;9196;49.194;12.526;2023-02-18T10:42:01;2.73;;;2.10;;
18140;SDS011;9196;49.194;12.526;2023-02-18T10:44:36;2.70;;;2.50;;
18140;SDS011;9196;49.194;12.526;2023-02-18T10:47:14;2.23;;;2.13;;
18140;SDS011;9196;49.194;12.526;2023-02-18T10:49:54;2.30;;;2.10;;
18140;SDS011;9196;49.194;12.526;2023-02-18T10:52:24;2.63;;;2.03;;
18140;SDS011;9196;49.194;12.526;2023-02-18T10:54:58;2.27;;;2.13;;
18140;SDS011;9196;49.194;12.526;2023-02-18T10:57:28;2.70;;;2.50;;
18140;SDS011;9196;49.194;12.526;2023-02-18T10:59:57;2.70;;;2.50;;
18140;SDS011;9196;49.194;12.526;2023-02-18T11:02:29;2.23;;;2.13;;
18140;SDS011;9196;49.194;12.526;2023-02-18T11:04:59;2.57;;;2.47;;
18140;SDS011;9196;49.194;12.526;2023-02-18T11:07:31;3.73;;;3.47;;
18140;SDS011;9196;49.194;12.526;2023-02-18T11:10:06;2.77;;;2.57;;
18140;SDS011;9196;49.194;12.526;2023-02-18T11:12:42;10.73;;;3.23;;
18140;SDS011;9196;49.194;12.526;2023-02-18T11:15:16;2.40;;;2.30;;
18140;SDS011;9196;49.194;12.526;2023-02-18T11:17:45;2.10;;;2.00;;
18140;SDS011;9196;49.194;12.526;2023-02-18T11:23:16;1.90;;;1.87;;
18140;SDS011;9196;49.194;12.526;2023-02-18T11:25:59;1.50;;;1.50;;
18140;SDS011;9196;49.194;12.526;2023-02-18T11:28:30;2.40;;;2.00;;
18140;SDS011;9196;49.194;12.526;2023-02-18T11:31:09;2.23;;;2.13;;
18140;SDS011;9196;49.194;12.526;2023-02-18T11:33:42;2.43;;;2.23;;
18140;SDS011;9196;49.194;12.526;2023-02-18T11:36:16;2.03;;;1.90;;
18140;SDS011;9196;49.194;12.526;2023-02-18T11:38:48;3.00;;;2.10;;
18140;SDS011;9196;49.194;12.526;2023-02-18T11:41:18;2.17;;;2.07;;
18140;SDS011;9196;49.194;12.526;2023-02-18T11:43:48;2.07;;;1.97;;
18140;SDS011;9196;49.194;12.526;2023-02-18T11:46:17;1.60;;;1.60;;
18140;SDS011;9196;49.194;12.526;2023-02-18T11:48:46;1.93;;;1.83;;
18140;SDS011;9196;49.194;12.526;2023-02-18T11:51:14;1.93;;;1.83;;
18140;SDS011;9196;49.194;12.526;2023-02-18T11:53:56;2.03;;;1.93;;
18140;SDS011;9196;49.194;12.526;2023-02-18T11:56:27;2.23;;;2.13;;
18140;SDS011;9196;49.194;12.526;2023-02-18T11:58:56;2.57;;;2.37;;
18140;SDS011;9196;49.194;12.526;2023-02-18T12:01:27;2.83;;;2.60;;
18140;SDS011;9196;49.194;12.526;2023-02-18T12:04:04;2.07;;;1.97;;
18140;SDS011;9196;49.194;12.526;2023-02-18T12:06:37;1.97;;;1.83;;
18140;SDS011;9196;49.194;12.526;2023-02-18T12:09:13;2.50;;;2.33;;
18140;SDS011;9196;49.194;12.526;2023-02-18T12:11:52;2.30;;;2.17;;
18140;SDS011;9196;49.194;12.526;2023-02-18T12:14:22;1.70;;;1.60;;
18140;SDS011;9196;49.194;12.526;2023-02-18T12:20:00;2.33;;;2.03;;
18140;SDS011;9196;49.194;12.526;2023-02-18T12:22:40;2.80;;;2.60;;
18140;SDS011;9196;49.194;12.526;2023-02-18T12:25:12;3.13;;;2.27;;
18140;SDS011;9196;49.194;12.526;2023-02-18T12:27:59;2.93;;;2.60;;
18140;SDS011;9196;49.194;12.526;2023-02-18T12:30:39;2.63;;;2.43;;
18140;SDS011;9196;49.194;12.526;2023-02-18T12:33:27;2.10;;;2.00;;
18140;SDS011;9196;49.194;12.526;2023-02-18T12:36:04;1.97;;;1.87;;
18140;SDS011;9196;49.194;12.526;2023-02-18T12:41:32;1.57;;;1.53;;
18140;SDS011;9196;49.194;12.526;2023-02-18T12:44:16;3.17;;;2.20;;
18140;SDS011;9196;49.194;12.526;2023-02-18T12:47:03;2.30;;;2.20;;
18140;SDS011;9196;49.194;12.526;2023-02-18T12:49:53;2.23;;;2.13;;
18140;SDS011;9196;49.194;12.526;2023-02-18T12:52:58;1.83;;;1.60;;
18140;SDS011;9196;49.194;12.526;2023-02-18T12:55:42;2.00;;;1.30;;
18140;SDS011;9196;49.194;12.526;2023-02-18T12:58:27;1.53;;;1.53;;
18140;SDS011;9196;49.194;12.526;2023-02-18T13:01:15;2.00;;;1.90;;
18140;SDS011;9196;49.194;12.526;2023-02-18T13:12:47;1.40;;;1.30;;
18140;SDS011;9196;49.194;12.526;2023-02-18T13:15:19;1.73;;;1.73;;
18140;SDS011;9196;49.194;12.526;2023-02-18T13:17:54;1.70;;;1.60;;
18140;SDS011;9196;49.194;12.526;2023-02-18T13:20:27;1.40;;;1.40;;
18140;SDS011;9196;49.194;12.526;2023-02-18T13:22:58;1.47;;;1.47;;
18140;SDS011;9196;49.194;12.526;2023-02-18T13:25:26;1.30;;;1.30;;
18140;SDS011;9196;49.194;12.526;2023-02-18T13:28:06;1.87;;;1.77;;
18140;SDS011;9196;49.194;12.526;2023-02-18T13:30:44;1.70;;;1.60;;
18140;SDS011;9196;49.194;12.526;2023-02-18T13:33:18;1.80;;;1.70;;
18140;SDS011;9196;49.194;12.526;2023-02-18T13:35:54;1.73;;;1.63;;
18140;SDS011;9196;49.194;12.526;2023-02-18T13:38:47;2.40;;;1.90;;
18140;SDS011;9196;49.194;12.526;2023-02-18T13:41:19;3.07;;;1.70;;
18140;SDS011;9196;49.194;12.526;2023-02-18T13:43:46;1.33;;;1.33;;
18140;SDS011;9196;49.194;12.526;2023-02-18T13:46:14;2.30;;;2.20;;
18140;SDS011;9196;49.194;12.526;2023-02-18T13:48:46;1.87;;;1.77;;
18140;SDS011;9196;49.194;12.526;2023-02-18T13:51:16;1.50;;;1.40;;
18140;SDS011;9196;49.194;12.526;2023-02-18T13:53:53;2.00;;;1.57;;
18140;SDS011;9196;49.194;12.526;2023-02-18T13:56:26;1.37;;;1.33;;
18140;SDS011;9196;49.194;12.526;2023-02-18T13:58:56;1.63;;;1.57;;
18140;SDS011;9196;49.194;12.526;2023-02-18T14:01:36;3.80;;;1.47;;
18140;SDS011;9196;49.194;12.526;2023-02-18T14:07:18;1.27;;;1.27;;
18140;SDS011;9196;49.194;12.526;2023-02-18T14:09:52;1.50;;;1.40;;
